Ripley, United Kingdom
Current Conditions -  °F | °C
As of 3:50 PM on Sunday 21 Dec 2014 (Local Time) from EGNX Reporting Station
Few Clouds Few Clouds  
Wind Chill: 50°   Ceiling: Unl
Heat Index: 50°   Visibility: 6mi
Dew Point: 45°   Wind: 16mph
Humidity: 82%   Direction: 220°SW
Pressure: 30.09"   Gusts: NA
Location:  53.03°N, 1.4°W
Report Text: EGNX 211550Z 22014KT 9999 FEW025 10/07 Q1019
Loading
Personal Weather Stations






























Interactive Weather Map New forecast layout! Learn more

10-Day Weather Forecast

Advertisements
Track Severe Weather on mobile